createdAt,value
2018-08-31T00:00:37.925Z,0
2018-08-31T00:01:50.775Z,0
2018-08-31T00:03:01.155Z,0
2018-08-31T00:04:11.235Z,0
2018-08-31T00:05:21.307Z,0
2018-08-31T00:06:31.393Z,0
2018-08-31T00:07:41.504Z,0
2018-08-31T00:08:51.309Z,0
2018-08-31T00:10:00.599Z,0
2018-08-31T00:11:10.141Z,0
2018-08-31T00:12:20.200Z,0
2018-08-31T00:13:30.277Z,0
2018-08-31T00:14:40.082Z,0
2018-08-31T00:15:50.161Z,0
2018-08-31T00:17:00.327Z,0
2018-08-31T00:18:10.416Z,0
2018-08-31T00:19:20.497Z,0
2018-08-31T00:20:30.608Z,0
2018-08-31T00:21:40.666Z,0
2018-08-31T00:22:50.747Z,0
2018-08-31T00:24:00.578Z,0
2018-08-31T00:25:10.659Z,0
2018-08-31T00:26:20.748Z,0
2018-08-31T00:27:30.821Z,0
2018-08-31T00:28:40.913Z,0
2018-08-31T00:29:51.023Z,0
2018-08-31T00:31:01.091Z,0
2018-08-31T00:32:10.909Z,0
2018-08-31T00:33:20.983Z,0
2018-08-31T00:34:31.063Z,0
2018-08-31T00:35:41.165Z,0
2018-08-31T00:36:51.241Z,0
2018-08-31T00:38:01.314Z,0
2018-08-31T00:39:11.397Z,0
2018-08-31T00:40:21.456Z,0
2018-08-31T00:41:31.556Z,0
2018-08-31T00:42:41.644Z,0
2018-08-31T00:43:51.741Z,0
2018-08-31T00:45:01.829Z,0
2018-08-31T00:46:11.644Z,0
2018-08-31T00:47:21.721Z,0
2018-08-31T00:48:31.533Z,0
2018-08-31T00:49:41.395Z,0
2018-08-31T00:50:51.207Z,0
2018-08-31T00:52:01.270Z,0
2018-08-31T00:53:11.360Z,0
2018-08-31T00:54:21.437Z,0
2018-08-31T00:55:31.564Z,0
2018-08-31T00:56:41.633Z,0
2018-08-31T00:57:51.772Z,0
2018-08-31T00:59:01.914Z,0
2018-08-31T01:00:11.982Z,0
2018-08-31T01:01:22.063Z,0
2018-08-31T01:02:32.139Z,0
2018-08-31T01:03:42.213Z,0
2018-08-31T01:04:52.294Z,0
2018-08-31T01:06:02.370Z,0
2018-08-31T01:07:12.491Z,0
2018-08-31T01:08:22.302Z,0
2018-08-31T01:09:32.098Z,0
2018-08-31T01:10:42.162Z,0
2018-08-31T01:11:52.258Z,0
2018-08-31T01:13:02.364Z,0
2018-08-31T01:14:12.462Z,0
2018-08-31T01:15:22.537Z,0
2018-08-31T01:16:32.612Z,0
2018-08-31T01:17:42.700Z,0
2018-08-31T01:18:52.529Z,0
2018-08-31T01:20:02.785Z,0
2018-08-31T01:21:12.859Z,0
2018-08-31T01:22:22.939Z,0
2018-08-31T01:23:33.010Z,0
2018-08-31T01:24:43.143Z,0
2018-08-31T01:25:53.214Z,0
2018-08-31T01:27:03.054Z,0
2018-08-31T01:28:12.883Z,0
2018-08-31T01:29:22.945Z,0
2018-08-31T01:30:33.035Z,0
2018-08-31T01:31:43.104Z,0
2018-08-31T01:32:52.934Z,0
2018-08-31T01:34:03.036Z,0
2018-08-31T01:35:12.855Z,0
2018-08-31T01:36:22.939Z,0
2018-08-31T01:37:33.012Z,0
2018-08-31T01:38:42.559Z,0
2018-08-31T01:39:52.625Z,0
2018-08-31T01:41:03.070Z,0
2018-08-31T01:42:12.876Z,0
2018-08-31T01:43:22.699Z,0
2018-08-31T01:44:32.784Z,0
2018-08-31T01:45:42.585Z,0
2018-08-31T01:46:52.643Z,0
2018-08-31T01:48:02.824Z,0
2018-08-31T01:49:12.883Z,0
2018-08-31T01:50:22.949Z,0
2018-08-31T01:51:32.751Z,0
2018-08-31T01:52:43.048Z,0
2018-08-31T01:53:53.261Z,0
2018-08-31T01:55:03.324Z,0
2018-08-31T01:56:13.422Z,0
2018-08-31T01:57:23.506Z,0
2018-08-31T01:58:33.588Z,0
2018-08-31T01:59:43.389Z,0
2018-08-31T02:00:53.451Z,0
2018-08-31T02:02:03.518Z,0
2018-08-31T02:03:13.329Z,0
2018-08-31T02:04:23.712Z,0
2018-08-31T02:05:33.855Z,0
2018-08-31T02:06:43.950Z,0
2018-08-31T02:07:54.021Z,0
2018-08-31T02:09:04.103Z,0
2018-08-31T02:10:13.932Z,0
2018-08-31T02:11:23.999Z,0
2018-08-31T02:12:34.059Z,0
2018-08-31T02:13:43.849Z,0
2018-08-31T02:14:53.939Z,0
2018-08-31T02:16:04.014Z,0
2018-08-31T02:17:14.330Z,0
2018-08-31T02:18:24.417Z,0
2018-08-31T02:19:34.480Z,0
2018-08-31T02:20:44.271Z,0
2018-08-31T02:21:54.344Z,0
2018-08-31T02:23:04.470Z,0
2018-08-31T02:24:14.540Z,0
2018-08-31T02:25:24.618Z,0
2018-08-31T02:26:34.421Z,0
2018-08-31T02:27:44.230Z,0
2018-08-31T02:28:54.344Z,0
2018-08-31T02:30:04.404Z,0
2018-08-31T02:31:14.483Z,0
2018-08-31T02:32:24.543Z,0
2018-08-31T02:33:34.619Z,0
2018-08-31T02:34:44.691Z,0
2018-08-31T02:35:54.501Z,0
2018-08-31T02:37:04.561Z,0
2018-08-31T02:38:14.651Z,0
2018-08-31T02:39:25.135Z,0
2018-08-31T02:40:34.945Z,0
2018-08-31T02:41:44.758Z,0
2018-08-31T02:42:54.828Z,0
2018-08-31T02:44:04.921Z,0
2018-08-31T02:45:15.016Z,0
2018-08-31T02:46:25.085Z,0
2018-08-31T02:47:35.163Z,0
2018-08-31T02:48:45.242Z,0
2018-08-31T02:49:55.448Z,0
2018-08-31T02:51:05.519Z,0
2018-08-31T02:52:15.675Z,0
2018-08-31T02:53:25.738Z,0
2018-08-31T02:54:35.810Z,0
2018-08-31T02:55:45.621Z,0
2018-08-31T02:56:55.689Z,0
2018-08-31T02:58:05.821Z,0
2018-08-31T02:59:15.900Z,0
2018-08-31T03:00:25.989Z,0
2018-08-31T03:01:36.068Z,0
2018-08-31T03:02:46.139Z,0
2018-08-31T03:34:56.981Z,0
2018-08-31T03:36:07.052Z,0
2018-08-31T03:37:17.124Z,0
2018-08-31T03:38:26.929Z,0
2018-08-31T03:39:37.000Z,0
2018-08-31T03:40:47.076Z,4
2018-08-31T03:41:57.173Z,4
2018-08-31T03:43:07.266Z,0
2018-08-31T03:44:17.070Z,4
2018-08-31T03:45:27.157Z,4
2018-08-31T03:46:37.222Z,4
2018-08-31T03:47:47.300Z,4
2018-08-31T03:48:56.601Z,8
2018-08-31T03:50:06.148Z,8
2018-08-31T03:51:15.974Z,8
2018-08-31T03:52:26.106Z,12
2018-08-31T03:53:35.909Z,12
2018-08-31T03:54:46.026Z,16
2018-08-31T03:55:56.113Z,16
2018-08-31T03:57:06.231Z,24
2018-08-31T03:58:16.065Z,28
2018-08-31T03:59:26.145Z,28
2018-08-31T04:00:36.028Z,36
2018-08-31T04:01:45.839Z,40
2018-08-31T04:02:55.954Z,48
2018-08-31T04:04:06.030Z,56
2018-08-31T04:05:16.126Z,60
2018-08-31T04:06:25.932Z,68
2018-08-31T04:07:36.023Z,80
2018-08-31T04:08:46.085Z,88
2018-08-31T04:09:56.162Z,104
2018-08-31T04:11:06.239Z,112
2018-08-31T04:12:16.287Z,132
2018-08-31T04:13:26.376Z,144
2018-08-31T04:14:36.455Z,160
2018-08-31T04:15:46.546Z,180
2018-08-31T04:16:56.618Z,196
2018-08-31T04:18:06.419Z,216
2018-08-31T04:19:16.505Z,240
2018-08-31T04:20:26.669Z,264
2018-08-31T04:21:36.744Z,288
2018-08-31T04:22:46.835Z,316
2018-08-31T04:23:56.971Z,340
2018-08-31T04:25:06.771Z,368
2018-08-31T04:26:16.052Z,396
2018-08-31T04:27:25.855Z,376
2018-08-31T04:28:35.924Z,456
2018-08-31T04:29:46.003Z,488
2018-08-31T04:30:56.069Z,532
2018-08-31T04:32:05.954Z,572
2018-08-31T04:33:15.792Z,620
2018-08-31T04:34:25.599Z,752
2018-08-31T04:35:35.410Z,888
2018-08-31T04:36:45.503Z,988
2018-08-31T04:37:55.571Z,1020
2018-08-31T04:39:05.696Z,1092
2018-08-31T04:40:15.522Z,1220
2018-08-31T04:41:25.608Z,1336
2018-08-31T04:42:35.687Z,1424
2018-08-31T04:43:45.821Z,1512
2018-08-31T04:44:55.625Z,1604
2018-08-31T04:46:05.697Z,1744
2018-08-31T04:47:15.514Z,1844
2018-08-31T04:48:24.800Z,1960
2018-08-31T04:49:34.626Z,2068
2018-08-31T04:50:44.437Z,2184
2018-08-31T04:51:54.254Z,2312
2018-08-31T04:53:03.797Z,2392
2018-08-31T04:54:13.613Z,2456
2018-08-31T04:55:23.701Z,2540
2018-08-31T04:56:33.835Z,2684
2018-08-31T04:57:43.906Z,2800
2018-08-31T04:58:54.204Z,2848
2018-08-31T05:00:04.201Z,2996
2018-08-31T05:01:14.022Z,3116
2018-08-31T05:02:24.156Z,3224
2018-08-31T05:03:34.238Z,3296
2018-08-31T05:04:44.322Z,3392
2018-08-31T05:05:54.392Z,3508
2018-08-31T05:07:04.209Z,3704
2018-08-31T05:08:14.018Z,3888
2018-08-31T05:09:23.862Z,3940
2018-08-31T05:10:33.666Z,4048
2018-08-31T05:11:43.484Z,4292
2018-08-31T05:12:53.590Z,4488
2018-08-31T05:14:03.722Z,4568
2018-08-31T05:15:13.834Z,4628
2018-08-31T05:16:23.906Z,4656
2018-08-31T05:17:33.716Z,4724
2018-08-31T05:18:43.808Z,4792
2018-08-31T05:19:53.893Z,4840
2018-08-31T05:21:03.702Z,4908
2018-08-31T05:22:13.526Z,4988
2018-08-31T05:23:23.690Z,5080
2018-08-31T05:24:33.789Z,5132
2018-08-31T05:25:43.658Z,4584
2018-08-31T05:26:53.482Z,3104
2018-08-31T05:28:03.284Z,2356
2018-08-31T05:29:13.379Z,2540
2018-08-31T05:30:23.215Z,2628
2018-08-31T05:31:33.304Z,2444
2018-08-31T05:32:43.379Z,2420
2018-08-31T05:33:53.453Z,2416
2018-08-31T05:35:03.264Z,2436
2018-08-31T05:36:13.095Z,2988
2018-08-31T05:37:23.231Z,4396
2018-08-31T05:38:33.308Z,5136
2018-08-31T05:39:43.372Z,5216
2018-08-31T05:40:53.216Z,5260
2018-08-31T05:42:03.292Z,4432
2018-08-31T05:43:13.469Z,2936
2018-08-31T05:44:23.558Z,2692
2018-08-31T05:45:33.656Z,2696
2018-08-31T05:46:43.467Z,2712
2018-08-31T05:47:53.553Z,3048
2018-08-31T05:49:03.643Z,3764
2018-08-31T05:50:13.703Z,3240
2018-08-31T05:51:23.781Z,2860
2018-08-31T05:52:33.853Z,2936
2018-08-31T05:53:44.301Z,3728
2018-08-31T05:54:54.103Z,4664
2018-08-31T05:56:04.181Z,4936
2018-08-31T05:57:14.008Z,4284
2018-08-31T05:58:23.579Z,3400
2018-08-31T05:59:33.644Z,3008
2018-08-31T06:00:43.511Z,2996
2018-08-31T06:01:53.060Z,3456
2018-08-31T06:03:03.140Z,4228
2018-08-31T06:04:12.970Z,4580
2018-08-31T06:05:23.052Z,4304
2018-08-31T06:06:33.118Z,3660
2018-08-31T06:07:43.198Z,3212
2018-08-31T06:08:53.010Z,3136
2018-08-31T06:10:03.106Z,3188
2018-08-31T06:11:13.170Z,3616
2018-08-31T06:12:23.333Z,4000
2018-08-31T06:13:33.414Z,4068
2018-08-31T06:14:43.252Z,3800
2018-08-31T06:15:53.325Z,3456
2018-08-31T06:17:03.416Z,3276
2018-08-31T06:18:13.530Z,3204
2018-08-31T06:19:23.603Z,3180
2018-08-31T06:20:33.420Z,3192
2018-08-31T06:21:43.240Z,3200
2018-08-31T06:22:53.307Z,3200
2018-08-31T06:24:03.373Z,3196
2018-08-31T06:25:13.183Z,3200
2018-08-31T06:26:23.295Z,3212
2018-08-31T06:27:33.170Z,3224
2018-08-31T06:28:43.257Z,3248
2018-08-31T06:29:53.353Z,3260
2018-08-31T06:31:03.426Z,3276
2018-08-31T06:32:13.498Z,3292
2018-08-31T06:33:23.577Z,3312
2018-08-31T06:34:33.659Z,3332
2018-08-31T06:35:43.757Z,3352
2018-08-31T06:36:53.842Z,3368
2018-08-31T06:38:03.929Z,3384
2018-08-31T06:39:14.014Z,3412
2018-08-31T06:40:23.829Z,3436
2018-08-31T06:41:33.950Z,3452
2018-08-31T06:42:44.028Z,3464
2018-08-31T06:43:54.114Z,3484
2018-08-31T06:45:04.187Z,3500
2018-08-31T06:46:14.277Z,3512
2018-08-31T06:47:24.336Z,3528
2018-08-31T06:48:34.402Z,3540
2018-08-31T06:49:44.469Z,3548
2018-08-31T06:50:54.539Z,3564
2018-08-31T06:52:04.358Z,3568
2018-08-31T06:53:14.495Z,3588
2018-08-31T06:54:24.577Z,3592
2018-08-31T06:55:34.641Z,3608
2018-08-31T06:56:44.727Z,3612
2018-08-31T06:57:54.831Z,3616
2018-08-31T06:59:05.177Z,3636
2018-08-31T07:00:15.265Z,3644
2018-08-31T07:01:25.337Z,3660
2018-08-31T07:02:35.417Z,3684
2018-08-31T07:03:45.431Z,3700
2018-08-31T07:04:55.895Z,3708
2018-08-31T07:06:05.699Z,3752
2018-08-31T07:07:15.771Z,3780
2018-08-31T07:08:25.835Z,3800
2018-08-31T07:09:35.663Z,3808
2018-08-31T07:10:45.803Z,3828
2018-08-31T07:11:55.893Z,3840
2018-08-31T07:13:05.953Z,3856
2018-08-31T07:14:15.816Z,3860
2018-08-31T07:15:25.637Z,3884
2018-08-31T07:16:35.721Z,3912
2018-08-31T07:17:45.795Z,3904
2018-08-31T07:18:55.857Z,3916
2018-08-31T07:20:05.942Z,3928
2018-08-31T07:21:16.029Z,3948
2018-08-31T07:22:26.100Z,3968
2018-08-31T07:23:36.197Z,3972
2018-08-31T07:24:46.398Z,3980
2018-08-31T07:25:56.494Z,3992
2018-08-31T07:27:06.568Z,4008
2018-08-31T07:28:16.641Z,4016
2018-08-31T07:29:26.729Z,4020
2018-08-31T07:30:36.548Z,4036
2018-08-31T07:31:46.641Z,4056
2018-08-31T07:32:56.727Z,4056
2018-08-31T07:34:06.857Z,4080
2018-08-31T07:35:16.977Z,4092
2018-08-31T07:36:27.714Z,4112
2018-08-31T07:37:37.272Z,4128
2018-08-31T07:38:47.371Z,4128
2018-08-31T07:39:57.498Z,4168
2018-08-31T07:41:08.802Z,4188
2018-08-31T07:42:21.170Z,4196
2018-08-31T07:43:33.758Z,4220
2018-08-31T07:44:45.928Z,4248
2018-08-31T07:45:58.124Z,4260
2018-08-31T07:47:09.709Z,4276
2018-08-31T07:48:21.891Z,4296
2018-08-31T07:49:33.849Z,4320
2018-08-31T07:50:45.738Z,4364
2018-08-31T07:51:57.773Z,4392
2018-08-31T07:53:09.521Z,4428
2018-08-31T07:54:21.213Z,4444
2018-08-31T07:55:32.904Z,4472
2018-08-31T07:56:45.022Z,4460
2018-08-31T07:57:55.785Z,4468
2018-08-31T07:59:05.911Z,4476
2018-08-31T08:00:16.042Z,4520
2018-08-31T08:01:25.873Z,4540
2018-08-31T08:02:36.636Z,4612
2018-08-31T08:03:46.716Z,4676
2018-08-31T08:04:56.852Z,4628
2018-08-31T08:06:06.981Z,4652
2018-08-31T08:07:17.191Z,4628
2018-08-31T08:08:27.395Z,4624
2018-08-31T08:09:37.526Z,4640
2018-08-31T08:10:47.390Z,4660
2018-08-31T08:11:56.947Z,4664
2018-08-31T08:13:07.171Z,4692
2018-08-31T08:14:16.523Z,4724
2018-08-31T08:15:26.642Z,4736
2018-08-31T08:16:36.744Z,4768
2018-08-31T08:17:46.829Z,4812
2018-08-31T08:18:56.923Z,4904
2018-08-31T08:20:07.096Z,4992
2018-08-31T08:21:17.423Z,5024
2018-08-31T08:22:27.830Z,5048
2018-08-31T08:23:38.150Z,5252
2018-08-31T08:24:47.993Z,5368
2018-08-31T08:25:58.114Z,5436
2018-08-31T08:27:08.216Z,5416
2018-08-31T08:28:18.571Z,5380
2018-08-31T08:29:28.611Z,5532
2018-08-31T08:30:38.715Z,5736
2018-08-31T08:31:48.865Z,5924
2018-08-31T08:32:59.381Z,5996
2018-08-31T08:34:09.264Z,5952
2018-08-31T08:35:19.378Z,4464
2018-08-31T08:36:29.477Z,3888
2018-08-31T08:37:39.620Z,4148
2018-08-31T08:38:49.439Z,3808
2018-08-31T08:39:59.268Z,3616
2018-08-31T08:41:09.408Z,3596
2018-08-31T08:42:19.764Z,3668
2018-08-31T08:43:29.639Z,3744
2018-08-31T08:44:39.757Z,3856
2018-08-31T08:45:49.850Z,3976
2018-08-31T08:46:59.926Z,4092
2018-08-31T08:48:09.813Z,4244
2018-08-31T08:49:20.082Z,4392
2018-08-31T08:50:29.901Z,4520
2018-08-31T08:51:40.017Z,4644
2018-08-31T08:52:49.834Z,4756
2018-08-31T08:53:59.909Z,4860
2018-08-31T08:55:24.722Z,4972
2018-08-31T08:56:34.838Z,5016
2018-08-31T08:57:44.949Z,5024
2018-08-31T08:58:55.044Z,5032
2018-08-31T09:01:30.375Z,5056
2018-08-31T09:02:39.980Z,5092
2018-08-31T09:03:50.088Z,5192
2018-08-31T09:05:00.176Z,5252
2018-08-31T09:06:10.251Z,5340
2018-08-31T09:07:20.397Z,5456
2018-08-31T09:08:30.222Z,5552
2018-08-31T09:17:53.789Z,5064
2018-08-31T09:19:03.907Z,5044
2018-08-31T09:20:14.188Z,5044
2018-08-31T09:21:24.072Z,5060
2018-08-31T09:22:34.160Z,5044
2018-08-31T09:23:44.029Z,5020
2018-08-31T09:24:53.793Z,4872
2018-08-31T09:26:03.892Z,4640
2018-08-31T09:27:13.741Z,4460
2018-08-31T09:28:23.958Z,4372
2018-08-31T09:29:34.179Z,4840
2018-08-31T09:30:44.016Z,4392
2018-08-31T09:31:54.117Z,5256
2018-08-31T09:33:04.224Z,4128
2018-08-31T09:34:14.048Z,4072
2018-08-31T09:35:23.593Z,4188
2018-08-31T09:36:33.679Z,4308
2018-08-31T09:37:43.500Z,4504
2018-08-31T09:38:53.608Z,4744
2018-08-31T09:40:03.720Z,4988
2018-08-31T09:41:13.808Z,5204
2018-08-31T09:42:23.871Z,5404
2018-08-31T09:43:33.703Z,5636
2018-08-31T09:44:43.811Z,5888
2018-08-31T09:45:53.912Z,6180
2018-08-31T09:47:03.784Z,6984
2018-08-31T09:48:13.916Z,7604
2018-08-31T09:49:23.750Z,8664
2018-08-31T09:50:33.892Z,7348
2018-08-31T09:51:44.097Z,7872
2018-08-31T09:52:53.676Z,7216
2018-08-31T09:54:03.494Z,7012
2018-08-31T09:55:13.655Z,6676
2018-08-31T09:56:23.767Z,6560
2018-08-31T09:57:34.287Z,6304
2018-08-31T09:58:44.480Z,6272
2018-08-31T09:59:54.598Z,6228
2018-08-31T10:01:04.431Z,6228
2018-08-31T10:02:14.251Z,7208
2018-08-31T10:03:24.338Z,6284
2018-08-31T10:04:34.166Z,6120
2018-08-31T10:05:44.256Z,6060
2018-08-31T10:06:54.373Z,5936
2018-08-31T10:08:04.448Z,5772
2018-08-31T10:09:14.555Z,5636
2018-08-31T10:10:24.403Z,5528
2018-08-31T10:11:34.558Z,5476
2018-08-31T10:12:44.630Z,5420
2018-08-31T10:13:54.698Z,5596
2018-08-31T10:15:04.769Z,5524
2018-08-31T10:16:14.597Z,5592
2018-08-31T10:17:24.697Z,5616
2018-08-31T10:18:34.937Z,5728
2018-08-31T10:19:44.781Z,5856
2018-08-31T10:20:54.869Z,6064
2018-08-31T10:22:04.693Z,6164
2018-08-31T10:23:14.790Z,6276
2018-08-31T10:24:25.003Z,6372
2018-08-31T10:25:35.087Z,6456
2018-08-31T10:26:45.161Z,6524
2018-08-31T10:27:54.986Z,6560
2018-08-31T10:29:05.211Z,6576
2018-08-31T10:30:15.194Z,6604
2018-08-31T10:31:25.106Z,6624
2018-08-31T10:32:35.189Z,6648
2018-08-31T10:33:45.292Z,6696
2018-08-31T10:34:55.399Z,6716
2018-08-31T10:36:05.759Z,6720
2018-08-31T10:37:15.852Z,6712
2018-08-31T10:38:25.950Z,6708
2018-08-31T10:39:36.045Z,6692
2018-08-31T10:40:46.142Z,6632
2018-08-31T10:41:55.714Z,6568
2018-08-31T10:43:05.818Z,6508
2018-08-31T10:44:15.916Z,6440
2018-08-31T10:45:25.740Z,6336
2018-08-31T10:46:35.972Z,6248
2018-08-31T10:47:46.281Z,6180
2018-08-31T10:48:56.395Z,6104
2018-08-31T10:50:06.517Z,6012
2018-08-31T10:51:16.623Z,5916
2018-08-31T10:52:26.718Z,5800
2018-08-31T10:53:36.923Z,5636
2018-08-31T10:54:47.008Z,5464
2018-08-31T10:55:57.364Z,5264
2018-08-31T10:57:07.710Z,5032
2018-08-31T10:58:17.801Z,4812
2018-08-31T10:59:27.660Z,4636
2018-08-31T11:00:37.761Z,4516
2018-08-31T11:01:48.073Z,4456
2018-08-31T11:02:58.152Z,4432
2018-08-31T11:04:08.609Z,4444
2018-08-31T11:05:18.443Z,4508
2018-08-31T11:06:28.257Z,4620
2018-08-31T11:07:38.361Z,4772
2018-08-31T11:08:47.932Z,4916
2018-08-31T11:09:58.051Z,5096
2018-08-31T11:11:08.178Z,5296
2018-08-31T11:12:18.277Z,5460
2018-08-31T11:13:28.381Z,5804
2018-08-31T11:14:38.235Z,6192
2018-08-31T11:15:48.382Z,5672
2018-08-31T11:16:58.469Z,5620
2018-08-31T11:18:08.311Z,5592
2018-08-31T11:19:18.429Z,5852
2018-08-31T11:20:28.541Z,5636
2018-08-31T11:21:38.629Z,5680
2018-08-31T11:22:48.732Z,5772
2018-08-31T11:23:58.976Z,5792
2018-08-31T11:25:09.109Z,6144
2018-08-31T11:26:19.209Z,5924
2018-08-31T11:27:29.317Z,5844
2018-08-31T11:28:39.139Z,5780
2018-08-31T11:29:49.229Z,5804
2018-08-31T11:30:59.337Z,5832
2018-08-31T11:32:09.194Z,5896
2018-08-31T11:33:19.365Z,5944
2018-08-31T11:34:29.484Z,5884
2018-08-31T11:35:39.058Z,5816
2018-08-31T11:36:49.270Z,5700
2018-08-31T11:37:59.465Z,5604
2018-08-31T11:39:09.024Z,5616
2018-08-31T11:40:19.200Z,5844
2018-08-31T11:41:29.073Z,5752
2018-08-31T11:42:38.388Z,5420
2018-08-31T11:43:48.498Z,5120
2018-08-31T11:44:58.798Z,5148
2018-08-31T11:46:08.932Z,4980
2018-08-31T11:47:18.883Z,4980
2018-08-31T11:48:28.820Z,5632
2018-08-31T11:49:38.757Z,5876
2018-08-31T11:50:48.884Z,5100
2018-08-31T11:51:59.049Z,4992
2018-08-31T11:53:08.969Z,5024
2018-08-31T11:54:19.137Z,5276
2018-08-31T11:55:29.330Z,5256
2018-08-31T11:56:39.431Z,5632
2018-08-31T11:57:49.525Z,5544
2018-08-31T11:58:59.622Z,5560
2018-08-31T12:00:09.766Z,6112
2018-08-31T12:01:20.043Z,6760
2018-08-31T12:02:30.309Z,7588
2018-08-31T12:03:40.430Z,7808
2018-08-31T12:04:50.512Z,7564
2018-08-31T12:06:00.638Z,7320
2018-08-31T12:07:10.488Z,6844
2018-08-31T12:08:20.575Z,6888
2018-08-31T12:09:30.684Z,6124
2018-08-31T12:10:40.835Z,6992
2018-08-31T12:11:50.978Z,7488
2018-08-31T12:13:00.869Z,7496
2018-08-31T12:14:10.686Z,7524
2018-08-31T12:15:20.498Z,7672
2018-08-31T12:16:30.590Z,6876
2018-08-31T12:17:40.668Z,7084
2018-08-31T12:18:50.833Z,6832
2018-08-31T12:20:00.922Z,5588
2018-08-31T12:21:11.124Z,6000
2018-08-31T12:22:21.233Z,6424
2018-08-31T12:23:31.363Z,6184
2018-08-31T12:24:41.472Z,5868
2018-08-31T12:25:51.591Z,6340
2018-08-31T12:27:01.440Z,7244
2018-08-31T12:28:11.531Z,7416
2018-08-31T12:29:21.638Z,7560
2018-08-31T12:30:32.016Z,7480
2018-08-31T12:31:41.855Z,6776
2018-08-31T12:32:51.959Z,6536
2018-08-31T12:34:02.046Z,6664
2018-08-31T12:35:11.885Z,6448
2018-08-31T12:36:22.018Z,6368
2018-08-31T12:37:32.141Z,5868
2018-08-31T12:38:42.224Z,6476
2018-08-31T12:39:51.795Z,6692
2018-08-31T12:41:01.878Z,5584
2018-08-31T12:42:11.706Z,5792
2018-08-31T12:43:21.787Z,6552
2018-08-31T12:44:31.917Z,7008
2018-08-31T12:45:41.777Z,7292
2018-08-31T12:46:51.846Z,7388
2018-08-31T12:48:01.736Z,6676
2018-08-31T12:49:11.839Z,6744
2018-08-31T12:50:21.933Z,6708
2018-08-31T12:51:31.758Z,6608
2018-08-31T12:52:41.852Z,6436
2018-08-31T12:53:51.697Z,6436
2018-08-31T12:55:01.811Z,6252
2018-08-31T12:56:11.643Z,6308
2018-08-31T12:57:21.748Z,6056
2018-08-31T12:58:31.873Z,6316
2018-08-31T12:59:41.775Z,5336
2018-08-31T13:00:51.879Z,4628
2018-08-31T13:02:01.993Z,4416
2018-08-31T13:03:12.122Z,4224
2018-08-31T13:04:21.943Z,4096
2018-08-31T13:05:32.377Z,4016
2018-08-31T13:06:42.524Z,3928
2018-08-31T13:07:52.653Z,3792
2018-08-31T13:09:02.846Z,3636
2018-08-31T13:10:12.957Z,3472
2018-08-31T13:11:23.111Z,3312
2018-08-31T13:12:33.449Z,3184
2018-08-31T13:13:43.555Z,3104
2018-08-31T13:14:53.664Z,3084
2018-08-31T13:16:03.828Z,3104
2018-08-31T13:17:13.721Z,3140
2018-08-31T13:18:23.824Z,3208
2018-08-31T13:19:33.675Z,3308
2018-08-31T13:20:43.799Z,3384
2018-08-31T13:21:53.902Z,3336
2018-08-31T13:23:03.784Z,3240
2018-08-31T13:24:13.883Z,3092
2018-08-31T13:25:24.125Z,2948
2018-08-31T13:26:34.269Z,2864
2018-08-31T13:27:44.362Z,2828
2018-08-31T13:28:54.519Z,2836
2018-08-31T13:30:04.629Z,2860
2018-08-31T13:31:15.179Z,2916
2018-08-31T13:32:25.454Z,3012
2018-08-31T13:33:35.805Z,3120
2018-08-31T13:34:45.952Z,3236
2018-08-31T13:35:56.063Z,3372
2018-08-31T13:37:06.149Z,3540
2018-08-31T13:38:16.466Z,3732
2018-08-31T13:39:26.320Z,3896
2018-08-31T13:40:36.470Z,4000
2018-08-31T13:41:46.297Z,4008
2018-08-31T13:42:56.478Z,3960
2018-08-31T13:44:06.520Z,3896
2018-08-31T13:45:16.824Z,3868
2018-08-31T13:46:26.466Z,3852
2018-08-31T13:47:36.303Z,3844
2018-08-31T13:48:46.402Z,3828
2018-08-31T13:49:56.528Z,3836
2018-08-31T13:51:06.638Z,3860
2018-08-31T13:52:16.506Z,3876
2018-08-31T13:53:26.358Z,3900
2018-08-31T13:54:36.187Z,3892
2018-08-31T13:55:46.261Z,3856
2018-08-31T13:56:55.872Z,3820
2018-08-31T13:58:05.772Z,3800
2018-08-31T13:59:15.916Z,3780
2018-08-31T14:00:25.774Z,3736
2018-08-31T14:01:35.862Z,3664
2018-08-31T14:02:45.703Z,3592
2018-08-31T14:03:56.023Z,3512
2018-08-31T14:05:06.147Z,3464
2018-08-31T14:06:16.261Z,3480
2018-08-31T14:07:26.357Z,3520
2018-08-31T14:08:36.442Z,3572
2018-08-31T14:09:46.564Z,3616
2018-08-31T14:10:56.687Z,3644
2018-08-31T14:12:06.777Z,3668
2018-08-31T14:13:16.364Z,3684
2018-08-31T14:14:26.475Z,3672
2018-08-31T14:15:36.460Z,3660
2018-08-31T14:16:46.777Z,3700
2018-08-31T14:17:56.854Z,3752
2018-08-31T14:19:06.696Z,4028
2018-08-31T14:20:16.783Z,4248
2018-08-31T14:21:26.863Z,4684
2018-08-31T14:22:36.443Z,4544
2018-08-31T14:23:46.539Z,4560
2018-08-31T14:24:56.645Z,4464
2018-08-31T14:26:06.749Z,4308
2018-08-31T14:27:16.620Z,4032
2018-08-31T14:28:26.720Z,3632
2018-08-31T14:29:37.116Z,3240
2018-08-31T14:30:47.421Z,2912
2018-08-31T14:31:57.511Z,2644
2018-08-31T14:33:07.118Z,2460
2018-08-31T14:34:17.220Z,2364
2018-08-31T14:35:26.810Z,2612
2018-08-31T14:36:37.246Z,2876
2018-08-31T14:37:47.597Z,3132
2018-08-31T14:38:57.432Z,3280
2018-08-31T14:40:07.257Z,2724
2018-08-31T14:41:17.086Z,2644
2018-08-31T14:42:27.681Z,2620
2018-08-31T14:43:37.528Z,2692
2018-08-31T14:44:47.621Z,2824
2018-08-31T14:45:57.722Z,2860
2018-08-31T14:47:07.831Z,2816
2018-08-31T14:48:17.637Z,2664
2018-08-31T14:49:27.611Z,2496
2018-08-31T14:50:37.894Z,2324
2018-08-31T14:51:47.976Z,2156
2018-08-31T14:52:58.131Z,1984
2018-08-31T14:54:08.275Z,1808
2018-08-31T14:55:18.369Z,1676
2018-08-31T14:56:28.494Z,1564
2018-08-31T14:57:39.086Z,1464
2018-08-31T14:58:49.708Z,1356
2018-08-31T14:59:59.797Z,1232
2018-08-31T15:01:09.880Z,1116
2018-08-31T15:02:19.972Z,1028
2018-08-31T15:03:30.078Z,972
2018-08-31T15:04:40.169Z,944
2018-08-31T15:05:50.424Z,920
2018-08-31T15:07:00.708Z,908
2018-08-31T15:08:10.796Z,928
2018-08-31T15:09:20.436Z,976
2018-08-31T15:10:30.531Z,1048
2018-08-31T15:11:40.617Z,1128
2018-08-31T15:12:50.742Z,1188
2018-08-31T15:14:00.978Z,1236
2018-08-31T15:15:11.057Z,1292
2018-08-31T15:16:21.252Z,1356
2018-08-31T15:17:32.064Z,1444
2018-08-31T15:18:42.161Z,1500
2018-08-31T15:19:52.270Z,1540
2018-08-31T15:21:02.365Z,1588
2018-08-31T15:22:11.982Z,1636
2018-08-31T15:23:22.137Z,1688
2018-08-31T15:24:32.373Z,1740
2018-08-31T15:25:43.197Z,1808
2018-08-31T15:26:53.334Z,1876
2018-08-31T15:28:03.479Z,1944
2018-08-31T15:29:13.577Z,1996
2018-08-31T15:30:23.689Z,2028
2018-08-31T15:31:34.014Z,2028
2018-08-31T15:32:43.692Z,2004
2018-08-31T15:33:53.800Z,1980
2018-08-31T15:35:03.896Z,1984
2018-08-31T15:36:14.004Z,2020
2018-08-31T15:37:24.113Z,2072
2018-08-31T15:38:33.972Z,2120
2018-08-31T15:39:43.802Z,2156
2018-08-31T15:40:53.885Z,2148
2018-08-31T15:42:04.059Z,2112
2018-08-31T15:43:13.895Z,2068
2018-08-31T15:44:24.019Z,2016
2018-08-31T15:45:34.122Z,1952
2018-08-31T15:46:44.231Z,1880
2018-08-31T15:47:54.332Z,1792
2018-08-31T15:49:04.431Z,1688
2018-08-31T15:50:14.533Z,1584
2018-08-31T15:51:24.670Z,1492
2018-08-31T15:52:34.873Z,1420
2018-08-31T15:53:44.964Z,1380
2018-08-31T15:54:54.807Z,1376
2018-08-31T15:56:05.162Z,1472
2018-08-31T15:57:15.491Z,1496
2018-08-31T15:58:25.601Z,1648
2018-08-31T15:59:35.738Z,1596
2018-08-31T16:00:45.884Z,1972
2018-08-31T16:01:55.999Z,1708
2018-08-31T16:03:06.134Z,1784
2018-08-31T16:04:16.227Z,1876
2018-08-31T16:05:26.341Z,2204
2018-08-31T16:06:36.427Z,2144
2018-08-31T16:07:46.527Z,2368
2018-08-31T16:08:56.636Z,2292
2018-08-31T16:10:06.489Z,2396
2018-08-31T16:11:16.600Z,2476
2018-08-31T16:12:26.694Z,2640
2018-08-31T16:13:36.801Z,3032
2018-08-31T16:14:46.640Z,3052
2018-08-31T16:15:56.795Z,3160
2018-08-31T16:17:06.883Z,3124
2018-08-31T16:18:17.000Z,3120
2018-08-31T16:19:26.842Z,3028
2018-08-31T16:20:37.022Z,2928
2018-08-31T16:21:46.635Z,2984
2018-08-31T16:22:56.750Z,3020
2018-08-31T16:24:06.561Z,3032
2018-08-31T16:25:16.380Z,2988
2018-08-31T16:26:26.461Z,2960
2018-08-31T16:27:36.587Z,2904
2018-08-31T16:28:46.731Z,2864
2018-08-31T16:29:57.175Z,2796
2018-08-31T16:31:07.304Z,2720
2018-08-31T16:32:16.943Z,2584
2018-08-31T16:33:27.039Z,2468
2018-08-31T16:34:37.151Z,2312
2018-08-31T16:35:47.537Z,2204